Time;durP1;ratioP1;P1;durP2;ratioP2;P2;SDS_P1;SDS_P2;PMS_P1;PMS_P2;Temp;Humidity;BMP_temperature;BMP_pressure;BME280_temperature;BME280_humidity;BME280_pressure;Samples;Min_cycle;Max_cycle;Signal;HPM_P1;HPM_P2
2022/10/20 00:01:29;;;;;;;27.83;17.25;;;;;;;;;;10474719;28;20497;-94
2022/10/20 00:06:33;;;;;;;27.75;16.85;;;;;;;;;;10475916;28;20497;-94
2022/10/20 00:11:36;;;;;;;27.27;15.70;;;;;;;;;;10484585;28;20448;-93
2022/10/20 00:16:39;;;;;;;26.53;15.90;;;;;;;;;;10488595;28;20437;-94
2022/10/20 00:21:41;;;;;;;23.52;15.73;;;;;;;;;;10487937;28;20433;-95
2022/10/20 00:26:44;;;;;;;27.77;16.60;;;;;;;;;;10480160;28;20932;-95
2022/10/20 00:31:46;;;;;;;29.30;16.70;;;;;;;;;;10487567;28;20412;-93
2022/10/20 00:36:48;;;;;;;28.35;16.38;;;;;;;;;;10487178;28;20437;-94
2022/10/20 00:41:53;;;;;;;25.40;15.65;;;;;;;;;;10483038;28;20418;-93
2022/10/20 00:46:57;;;;;;;28.58;16.10;;;;;;;;;;10486586;28;21274;-94
2022/10/20 00:51:59;;;;;;;27.60;15.95;;;;;;;;;;10483836;28;20496;-94
2022/10/20 00:57:03;;;;;;;27.97;16.40;;;;;;;;;;10474468;28;20430;-94
2022/10/20 01:02:06;;;;;;;22.40;14.45;;;;;;;;;;10469819;28;20437;-95
2022/10/20 01:07:08;;;;;;;25.17;15.13;;;;;;;;;;10468616;28;21221;-94
2022/10/20 01:12:26;;;;;;;21.45;14.05;;;;;;;;;;10469846;28;20428;-94
2022/10/20 01:17:40;;;;;;;23.57;14.57;;;;;;;;;;10479688;28;20461;-94
2022/10/20 01:23:11;;;;;;;22.10;13.88;;;;;;;;;;10486589;28;20418;-94
2022/10/20 01:28:19;;;;;;;21.95;13.93;;;;;;;;;;10486207;28;20493;-94
2022/10/20 01:33:29;;;;;;;21.20;13.95;;;;;;;;;;10463513;28;20508;-94
2022/10/20 01:38:38;;;;;;;22.45;13.23;;;;;;;;;;10482339;28;20489;-94
2022/10/20 01:43:45;;;;;;;21.33;14.00;;;;;;;;;;10494347;28;20463;-95
2022/10/20 01:48:48;;;;;;;24.07;13.87;;;;;;;;;;10490957;28;20429;-96
2022/10/20 01:53:50;;;;;;;20.80;13.40;;;;;;;;;;10492778;28;20437;-94
2022/10/20 01:59:22;;;;;;;22.23;14.02;;;;;;;;;;10493343;28;20405;-95
2022/10/20 02:04:30;;;;;;;20.47;13.57;;;;;;;;;;10471301;28;20486;-94
2022/10/20 02:09:37;;;;;;;24.17;14.45;;;;;;;;;;10481661;28;20406;-94
2022/10/20 02:14:42;;;;;;;22.90;13.60;;;;;;;;;;10488382;28;20965;-95
2022/10/20 02:19:46;;;;;;;20.13;13.73;;;;;;;;;;10489858;28;20493;-94
2022/10/20 02:24:49;;;;;;;20.48;13.95;;;;;;;;;;10487068;28;20433;-94
2022/10/20 02:29:57;;;;;;;22.02;13.55;;;;;;;;;;10486879;28;20577;-94
2022/10/20 02:34:59;;;;;;;20.60;13.48;;;;;;;;;;10493151;28;20488;-94
2022/10/20 02:40:01;;;;;;;22.02;14.05;;;;;;;;;;10465711;28;20406;-94
2022/10/20 02:45:05;;;;;;;17.73;12.82;;;;;;;;;;10491662;28;21000;-93
2022/10/20 02:50:08;;;;;;;19.63;13.52;;;;;;;;;;10479402;28;20406;-94
2022/10/20 02:55:10;;;;;;;19.05;13.48;;;;;;;;;;10491682;28;20438;-94
2022/10/20 03:00:14;;;;;;;17.77;12.45;;;;;;;;;;10491554;28;20499;-95
2022/10/20 03:05:17;;;;;;;19.10;13.07;;;;;;;;;;10491002;28;20770;-94
2022/10/20 03:10:19;;;;;;;19.50;13.48;;;;;;;;;;10490920;28;20893;-95
2022/10/20 03:15:23;;;;;;;18.87;13.33;;;;;;;;;;10477090;28;20446;-95
2022/10/20 03:20:25;;;;;;;24.00;14.35;;;;;;;;;;10470425;28;20424;-95
2022/10/20 03:25:26;;;;;;;21.90;13.73;;;;;;;;;;10488474;28;20445;-95
2022/10/20 03:30:30;;;;;;;17.48;13.35;;;;;;;;;;10516709;22;20414;-89
2022/10/20 03:35:32;;;;;;;18.48;13.15;;;;;;;;;;10499973;28;20400;-89
2022/10/20 03:40:34;;;;;;;19.63;13.32;;;;;;;;;;10513833;28;20502;-88
2022/10/20 03:45:37;;;;;;;21.50;12.67;;;;;;;;;;10512359;28;20456;-89
2022/10/20 03:50:39;;;;;;;19.58;13.07;;;;;;;;;;10504409;28;20467;-89
2022/10/20 03:55:41;;;;;;;17.57;12.40;;;;;;;;;;10512307;28;20405;-89
2022/10/20 04:00:44;;;;;;;19.73;12.95;;;;;;;;;;10519591;28;20404;-88
2022/10/20 04:05:46;;;;;;;17.13;12.23;;;;;;;;;;10490942;28;20408;-86
2022/10/20 04:10:48;;;;;;;16.37;11.37;;;;;;;;;;10513539;28;20396;-88
2022/10/20 04:15:51;;;;;;;17.17;11.90;;;;;;;;;;10511499;28;20486;-89
2022/10/20 04:20:53;;;;;;;17.50;12.35;;;;;;;;;;10515428;28;20406;-88
2022/10/20 04:25:55;;;;;;;19.00;12.40;;;;;;;;;;10515286;28;20879;-89
2022/10/20 04:31:00;;;;;;;19.73;12.47;;;;;;;;;;10510117;28;20397;-88
2022/10/20 04:36:06;;;;;;;18.17;12.35;;;;;;;;;;10496408;28;20470;-89
2022/10/20 04:41:08;;;;;;;18.67;12.27;;;;;;;;;;10510712;28;20491;-89
2022/10/20 04:46:11;;;;;;;18.45;12.02;;;;;;;;;;10510045;28;20432;-88
2022/10/20 04:51:15;;;;;;;20.10;12.90;;;;;;;;;;10511102;28;20487;-88
2022/10/20 04:56:19;;;;;;;18.25;12.82;;;;;;;;;;10513167;28;21079;-88
2022/10/20 05:01:25;;;;;;;17.98;12.38;;;;;;;;;;10520825;28;20495;-88
2022/10/20 05:06:30;;;;;;;17.38;11.93;;;;;;;;;;10518303;28;20426;-87
2022/10/20 05:11:35;;;;;;;19.20;12.00;;;;;;;;;;10518058;28;20408;-87
2022/10/20 05:16:39;;;;;;;19.90;12.03;;;;;;;;;;10518228;28;20481;-88
2022/10/20 05:21:41;;;;;;;16.13;10.95;;;;;;;;;;10513759;28;20418;-88
2022/10/20 05:26:43;;;;;;;18.05;11.30;;;;;;;;;;10519874;28;20499;-87
2022/10/20 05:31:46;;;;;;;16.65;10.88;;;;;;;;;;10513233;28;20419;-88
2022/10/20 05:36:48;;;;;;;19.63;10.75;;;;;;;;;;10517030;28;20407;-88
2022/10/20 05:41:50;;;;;;;19.75;11.25;;;;;;;;;;10509834;28;20507;-88
2022/10/20 05:46:53;;;;;;;20.50;11.20;;;;;;;;;;10510510;28;20927;-88
2022/10/20 05:51:55;;;;;;;15.00;10.00;;;;;;;;;;10503848;28;20429;-89
2022/10/20 05:56:57;;;;;;;19.50;10.90;;;;;;;;;;10506297;28;20564;-88
2022/10/20 06:02:00;;;;;;;17.00;11.27;;;;;;;;;;10510684;28;20408;-88
2022/10/20 06:07:02;;;;;;;18.27;11.13;;;;;;;;;;10511727;28;20416;-88
2022/10/20 06:12:04;;;;;;;21.33;12.02;;;;;;;;;;10512534;28;20428;-87
2022/10/20 06:17:09;;;;;;;16.55;11.18;;;;;;;;;;10519696;28;20752;-87
2022/10/20 06:22:10;;;;;;;18.17;11.48;;;;;;;;;;10524478;28;20433;-87
2022/10/20 06:27:12;;;;;;;20.83;12.07;;;;;;;;;;10517340;28;20916;-88
2022/10/20 06:32:17;;;;;;;21.73;12.90;;;;;;;;;;10523112;28;20402;-88
2022/10/20 06:37:18;;;;;;;18.48;11.93;;;;;;;;;;10524259;28;20456;-88
2022/10/20 06:42:20;;;;;;;19.13;12.70;;;;;;;;;;10514030;28;20434;-83
2022/10/20 06:47:23;;;;;;;19.92;11.90;;;;;;;;;;10498710;28;20527;-83
2022/10/20 06:52:25;;;;;;;23.05;12.15;;;;;;;;;;10517700;28;20487;-82
2022/10/20 06:57:27;;;;;;;17.60;11.80;;;;;;;;;;10525155;28;20476;-83
2022/10/20 07:02:30;;;;;;;18.00;11.43;;;;;;;;;;10526007;28;20478;-83
2022/10/20 07:07:32;;;;;;;19.27;11.27;;;;;;;;;;10520582;28;20456;-83
2022/10/20 07:12:34;;;;;;;18.80;11.77;;;;;;;;;;10512588;28;20896;-83
2022/10/20 07:17:37;;;;;;;17.45;11.63;;;;;;;;;;10514074;28;20810;-83
2022/10/20 07:22:39;;;;;;;21.17;13.27;;;;;;;;;;10511813;28;20411;-83
2022/10/20 07:27:40;;;;;;;20.13;11.85;;;;;;;;;;10517251;28;20844;-83
2022/10/20 07:32:43;;;;;;;17.17;11.10;;;;;;;;;;10519485;28;20916;-83
2022/10/20 07:37:45;;;;;;;20.65;11.30;;;;;;;;;;10519383;28;20437;-89
2022/10/20 07:42:47;;;;;;;18.05;10.68;;;;;;;;;;10521221;28;20406;-88
2022/10/20 07:47:52;;;;;;;17.13;11.27;;;;;;;;;;10521212;28;21033;-88
2022/10/20 07:52:54;;;;;;;22.08;10.80;;;;;;;;;;10511671;28;20400;-88
2022/10/20 07:57:56;;;;;;;15.38;10.43;;;;;;;;;;10516929;28;20581;-89
2022/10/20 08:02:59;;;;;;;16.80;10.27;;;;;;;;;;10518785;28;20406;-89
2022/10/20 08:08:01;;;;;;;15.75;11.02;;;;;;;;;;10524306;28;20427;-88
2022/10/20 08:13:03;;;;;;;14.77;9.98;;;;;;;;;;10521160;28;20542;-89
2022/10/20 08:18:08;;;;;;;15.30;10.05;;;;;;;;;;10517306;28;20477;-89
2022/10/20 08:23:10;;;;;;;16.45;10.27;;;;;;;;;;10517263;28;20403;-89
2022/10/20 08:28:12;;;;;;;14.93;10.52;;;;;;;;;;10519372;28;20507;-89
2022/10/20 08:33:15;;;;;;;14.98;10.07;;;;;;;;;;10541300;22;20428;-89
2022/10/20 08:38:17;;;;;;;13.35;9.25;;;;;;;;;;10524160;28;20396;-89
2022/10/20 08:43:20;;;;;;;12.30;8.40;;;;;;;;;;10522209;28;20488;-89
2022/10/20 08:48:27;;;;;;;12.63;8.80;;;;;;;;;;10523894;28;20972;-89
2022/10/20 08:53:38;;;;;;;11.57;8.90;;;;;;;;;;10515277;28;20402;-89
2022/10/20 08:58:45;;;;;;;12.00;8.03;;;;;;;;;;10523672;28;20439;-88
2022/10/20 09:03:52;;;;;;;10.70;7.80;;;;;;;;;;10522347;28;20602;-88
2022/10/20 09:08:55;;;;;;;12.07;7.90;;;;;;;;;;10526392;28;20503;-89
2022/10/20 09:13:57;;;;;;;11.63;8.47;;;;;;;;;;10518793;28;20408;-88
2022/10/20 09:19:01;;;;;;;12.13;8.83;;;;;;;;;;10502378;28;20894;-87
2022/10/20 09:24:06;;;;;;;13.57;8.87;;;;;;;;;;10518744;28;20883;-88
2022/10/20 09:29:10;;;;;;;14.07;9.73;;;;;;;;;;10520933;28;20434;-88
2022/10/20 09:34:25;;;;;;;14.27;9.10;;;;;;;;;;10517574;28;20439;-89
2022/10/20 09:39:29;;;;;;;18.17;9.97;;;;;;;;;;10518524;28;20400;-90
2022/10/20 09:44:33;;;;;;;14.65;10.63;;;;;;;;;;10518835;28;20440;-89
2022/10/20 09:49:39;;;;;;;15.63;10.40;;;;;;;;;;10524513;28;20427;-89
2022/10/20 09:54:41;;;;;;;16.38;10.88;;;;;;;;;;10531933;28;20400;-89
2022/10/20 09:59:45;;;;;;;16.95;11.40;;;;;;;;;;10538552;28;20526;-89
2022/10/20 10:04:50;;;;;;;16.23;11.52;;;;;;;;;;10545012;28;20487;-89
2022/10/20 10:09:57;;;;;;;16.58;10.38;;;;;;;;;;10514068;28;20507;-88
2022/10/20 10:15:03;;;;;;;16.88;11.52;;;;;;;;;;10523332;28;20487;-88
2022/10/20 10:20:29;;;;;;;15.50;10.73;;;;;;;;;;10529950;28;20405;-88
2022/10/20 10:25:31;;;;;;;15.40;11.00;;;;;;;;;;10526622;28;20422;-87
2022/10/20 10:30:36;;;;;;;16.70;11.23;;;;;;;;;;10522649;28;20963;-87
2022/10/20 10:35:41;;;;;;;15.27;10.57;;;;;;;;;;10524793;28;20483;-86
2022/10/20 10:40:53;;;;;;;13.73;9.93;;;;;;;;;;10523039;28;20503;-87
2022/10/20 10:45:58;;;;;;;15.13;10.38;;;;;;;;;;10518898;28;20508;-86
2022/10/20 10:51:05;;;;;;;16.38;10.77;;;;;;;;;;10520865;28;20396;-88
2022/10/20 10:56:16;;;;;;;15.73;10.47;;;;;;;;;;10521576;28;20407;-88
2022/10/20 11:01:47;;;;;;;13.68;9.88;;;;;;;;;;10526153;28;20404;-88
2022/10/20 11:06:57;;;;;;;15.60;10.03;;;;;;;;;;10527418;28;20426;-88
2022/10/20 11:12:29;;;;;;;14.98;9.93;;;;;;;;;;10527626;28;20412;-89
2022/10/20 11:17:44;;;;;;;16.35;9.63;;;;;;;;;;10528480;28;20496;-88
2022/10/20 11:23:01;;;;;;;16.17;9.82;;;;;;;;;;10516272;28;20412;-86
2022/10/20 11:28:28;;;;;;;15.88;9.68;;;;;;;;;;10512001;28;20431;-88
2022/10/20 11:33:36;;;;;;;18.80;10.17;;;;;;;;;;10503919;28;20424;-88
2022/10/20 11:38:45;;;;;;;15.35;10.43;;;;;;;;;;10516214;28;20436;-88
2022/10/20 11:43:54;;;;;;;13.70;10.07;;;;;;;;;;10518597;28;20420;-88
2022/10/20 11:48:56;;;;;;;13.47;9.67;;;;;;;;;;10518378;28;20692;-89
2022/10/20 11:54:20;;;;;;;15.67;10.47;;;;;;;;;;10514923;28;20431;-90
2022/10/20 11:59:52;;;;;;;13.05;8.63;;;;;;;;;;10503658;28;20447;-89
2022/10/20 12:05:20;;;;;;;13.57;8.95;;;;;;;;;;10506889;28;20426;-89
2022/10/20 12:10:42;;;;;;;12.25;8.20;;;;;;;;;;10495429;28;20995;-88
2022/10/20 12:15:54;;;;;;;12.85;8.60;;;;;;;;;;10508812;28;20973;-89
2022/10/20 12:21:00;;;;;;;12.07;8.32;;;;;;;;;;10510897;28;20477;-90
2022/10/20 12:26:03;;;;;;;11.65;8.50;;;;;;;;;;10505665;28;20430;-89
2022/10/20 12:31:05;;;;;;;13.90;8.63;;;;;;;;;;10503667;28;20487;-89
2022/10/20 12:36:26;;;;;;;12.20;8.00;;;;;;;;;;10504857;28;20405;-89
2022/10/20 12:41:33;;;;;;;9.83;6.97;;;;;;;;;;10504225;28;20455;-89
2022/10/20 12:46:41;;;;;;;11.35;7.15;;;;;;;;;;10509568;28;20416;-90
2022/10/20 12:51:50;;;;;;;11.07;7.95;;;;;;;;;;10516276;28;20451;-89
2022/10/20 12:56:58;;;;;;;12.18;8.65;;;;;;;;;;10514702;28;20400;-89
2022/10/20 13:02:40;;;;;;;12.30;8.88;;;;;;;;;;10518998;28;20511;-87
2022/10/20 13:08:03;;;;;;;12.10;8.63;;;;;;;;;;10515081;28;20435;-86
2022/10/20 13:13:42;;;;;;;13.07;8.95;;;;;;;;;;10517957;28;20408;-87
2022/10/20 13:18:49;;;;;;;11.70;8.50;;;;;;;;;;10511449;28;20499;-89
2022/10/20 13:23:56;;;;;;;11.43;8.32;;;;;;;;;;10521330;28;20822;-88
2022/10/20 13:29:01;;;;;;;12.52;9.50;;;;;;;;;;10522877;28;20810;-89
2022/10/20 13:34:09;;;;;;;12.47;8.83;;;;;;;;;;10521896;28;20412;-89
2022/10/20 13:39:17;;;;;;;12.32;9.02;;;;;;;;;;10527080;28;20483;-89
2022/10/20 13:44:29;;;;;;;12.85;9.05;;;;;;;;;;10525763;28;20868;-90
2022/10/20 13:49:42;;;;;;;12.43;8.40;;;;;;;;;;10529269;28;20431;-89
2022/10/20 13:54:49;;;;;;;11.80;8.05;;;;;;;;;;10525532;28;20415;-89
2022/10/20 14:00:01;;;;;;;12.10;8.40;;;;;;;;;;10539215;28;20511;-88
2022/10/20 14:05:05;;;;;;;13.37;8.60;;;;;;;;;;10530563;28;20402;-89
2022/10/20 14:10:20;;;;;;;13.40;9.05;;;;;;;;;;10518754;28;20453;-89
2022/10/20 14:15:30;;;;;;;11.13;7.67;;;;;;;;;;10515768;28;21008;-89
2022/10/20 14:20:37;;;;;;;11.10;7.85;;;;;;;;;;10525254;28;20483;-87
2022/10/20 14:25:40;;;;;;;12.38;8.20;;;;;;;;;;10517090;28;20810;-87
2022/10/20 14:30:43;;;;;;;10.87;7.87;;;;;;;;;;10490675;28;20412;-88
2022/10/20 14:35:51;;;;;;;12.32;7.93;;;;;;;;;;10513506;28;20897;-90
2022/10/20 14:40:55;;;;;;;11.55;8.00;;;;;;;;;;10523214;28;20424;-90
2022/10/20 14:46:00;;;;;;;14.43;8.10;;;;;;;;;;10519052;28;21254;-90
2022/10/20 14:51:02;;;;;;;12.15;8.27;;;;;;;;;;10528843;28;20414;-90
2022/10/20 14:56:23;;;;;;;12.38;8.50;;;;;;;;;;10532676;28;20422;-91
2022/10/20 15:01:30;;;;;;;20.20;12.10;;;;;;;;;;10528803;28;20953;-91
2022/10/20 15:06:33;;;;;;;13.03;8.50;;;;;;;;;;10518766;28;20500;-90
2022/10/20 15:11:39;;;;;;;11.33;8.07;;;;;;;;;;10524833;28;20406;-90
2022/10/20 15:16:44;;;;;;;13.37;8.70;;;;;;;;;;10520233;28;20435;-90
2022/10/20 15:21:47;;;;;;;13.57;9.13;;;;;;;;;;10516078;28;20958;-89
2022/10/20 15:26:48;;;;;;;12.25;8.40;;;;;;;;;;10524277;28;20416;-89
2022/10/20 15:31:52;;;;;;;14.57;8.27;;;;;;;;;;10524037;28;20455;-90
2022/10/20 15:36:54;;;;;;;12.43;8.32;;;;;;;;;;10517651;28;21204;-91
2022/10/20 15:41:56;;;;;;;13.37;8.77;;;;;;;;;;10526213;28;20432;-89
2022/10/20 15:46:59;;;;;;;14.07;8.17;;;;;;;;;;10506580;28;20432;-90
2022/10/20 15:52:01;;;;;;;12.60;8.23;;;;;;;;;;10520731;28;20442;-90
2022/10/20 15:57:03;;;;;;;14.50;10.55;;;;;;;;;;10521648;28;20424;-90
2022/10/20 16:02:12;;;;;;;17.77;11.77;;;;;;;;;;10519080;28;20434;-90
2022/10/20 16:07:14;;;;;;;18.47;11.67;;;;;;;;;;10520444;28;20412;-90
2022/10/20 16:12:16;;;;;;;20.42;12.20;;;;;;;;;;10520600;28;20450;-90
2022/10/20 16:17:19;;;;;;;18.10;11.48;;;;;;;;;;10523163;28;20496;-90
2022/10/20 16:22:22;;;;;;;18.83;12.20;;;;;;;;;;10520219;28;20409;-90
2022/10/20 16:27:23;;;;;;;18.47;12.07;;;;;;;;;;10523501;28;20517;-90
2022/10/20 16:32:27;;;;;;;20.10;13.27;;;;;;;;;;10515814;28;20499;-90
2022/10/20 16:37:30;;;;;;;19.98;13.02;;;;;;;;;;10510868;28;20427;-89
2022/10/20 16:42:32;;;;;;;20.13;13.00;;;;;;;;;;10518472;28;20463;-90
2022/10/20 16:47:36;;;;;;;21.45;13.13;;;;;;;;;;10518093;28;20614;-90
2022/10/20 16:52:38;;;;;;;20.60;13.20;;;;;;;;;;10519847;28;20427;-89
2022/10/20 16:57:40;;;;;;;17.77;13.03;;;;;;;;;;10510114;28;20420;-90
2022/10/20 17:02:46;;;;;;;19.87;13.07;;;;;;;;;;10503765;28;20510;-90
2022/10/20 17:07:48;;;;;;;18.23;12.95;;;;;;;;;;10509273;28;20424;-89
2022/10/20 17:12:50;;;;;;;19.17;12.90;;;;;;;;;;10516675;28;20550;-90
2022/10/20 17:17:53;;;;;;;17.95;12.70;;;;;;;;;;10519443;28;20430;-89
2022/10/20 17:22:55;;;;;;;18.90;13.15;;;;;;;;;;10520046;28;20840;-89
2022/10/20 17:27:58;;;;;;;21.30;12.93;;;;;;;;;;10519616;28;20967;-89
2022/10/20 17:33:01;;;;;;;18.63;12.68;;;;;;;;;;10520020;28;20480;-86
2022/10/20 17:38:04;;;;;;;23.13;13.18;;;;;;;;;;10512033;28;22193;-87
2022/10/20 17:43:06;;;;;;;18.67;13.18;;;;;;;;;;10508736;28;20994;-91
2022/10/20 17:48:12;;;;;;;17.25;13.18;;;;;;;;;;10509482;28;20519;-87
2022/10/20 17:53:18;;;;;;;22.07;14.00;;;;;;;;;;10512556;28;20462;-96
2022/10/20 17:58:20;;;;;;;22.55;14.00;;;;;;;;;;10507780;28;20477;-89
2022/10/20 18:03:23;;;;;;;21.10;14.35;;;;;;;;;;10517353;28;20989;-87
2022/10/20 18:08:25;;;;;;;20.33;14.32;;;;;;;;;;10511591;28;20922;-88
2022/10/20 18:13:27;;;;;;;22.85;14.10;;;;;;;;;;10511359;28;20483;-89
2022/10/20 18:18:30;;;;;;;22.23;15.43;;;;;;;;;;10517213;28;20442;-88
2022/10/20 18:23:34;;;;;;;23.05;14.70;;;;;;;;;;10508087;28;20467;-90
2022/10/20 18:28:37;;;;;;;20.73;15.43;;;;;;;;;;10518800;28;20818;-90
2022/10/20 18:33:41;;;;;;;22.40;15.48;;;;;;;;;;10518374;28;20424;-88
2022/10/20 18:38:44;;;;;;;24.27;17.38;;;;;;;;;;10520213;28;20895;-88
2022/10/20 18:43:46;;;;;;;22.25;15.95;;;;;;;;;;10518260;28;20492;-90
2022/10/20 18:48:50;;;;;;;23.83;15.82;;;;;;;;;;10517136;28;20420;-88
2022/10/20 18:53:57;;;;;;;25.90;15.93;;;;;;;;;;10520926;28;20503;-87
2022/10/20 18:59:00;;;;;;;21.80;14.90;;;;;;;;;;10517387;28;20800;-89
2022/10/20 19:04:04;;;;;;;22.37;15.10;;;;;;;;;;10518851;28;20566;-89
2022/10/20 19:09:08;;;;;;;25.63;15.73;;;;;;;;;;10515839;28;20416;-90
2022/10/20 19:14:12;;;;;;;25.23;16.02;;;;;;;;;;10514129;28;20473;-91
2022/10/20 19:19:16;;;;;;;22.60;15.82;;;;;;;;;;10516326;28;20399;-90
2022/10/20 19:24:19;;;;;;;25.73;16.43;;;;;;;;;;10514872;28;20436;-89
2022/10/20 19:29:22;;;;;;;23.08;16.23;;;;;;;;;;10512929;28;20418;-89
2022/10/20 19:34:27;;;;;;;25.80;17.77;;;;;;;;;;10518332;28;20438;-91
2022/10/20 19:39:32;;;;;;;24.87;18.00;;;;;;;;;;10514141;28;20412;-88
2022/10/20 19:44:35;;;;;;;25.93;18.60;;;;;;;;;;10513640;28;20498;-90
2022/10/20 19:49:39;;;;;;;26.15;19.70;;;;;;;;;;10514221;28;20438;-89
2022/10/20 19:54:41;;;;;;;25.85;19.33;;;;;;;;;;10516291;28;20463;-91
2022/10/20 19:59:43;;;;;;;26.33;19.87;;;;;;;;;;10512169;28;20491;-90
2022/10/20 20:04:47;;;;;;;28.38;20.27;;;;;;;;;;10511050;28;20419;-88
2022/10/20 20:09:49;;;;;;;30.85;20.73;;;;;;;;;;10512048;28;20482;-91
2022/10/20 20:14:52;;;;;;;33.80;20.88;;;;;;;;;;10488637;28;20547;-89
2022/10/20 20:19:56;;;;;;;31.63;21.13;;;;;;;;;;10512090;28;20845;-90
2022/10/20 20:24:57;;;;;;;34.97;21.05;;;;;;;;;;10512996;28;20495;-88
2022/10/20 20:30:02;;;;;;;34.53;20.92;;;;;;;;;;10503419;28;20900;-89
2022/10/20 20:35:07;;;;;;;32.07;21.73;;;;;;;;;;10513100;28;20833;-90
2022/10/20 20:40:10;;;;;;;32.55;20.90;;;;;;;;;;10490096;28;20396;-88
2022/10/20 20:45:12;;;;;;;32.13;22.30;;;;;;;;;;10509570;28;20410;-89
2022/10/20 20:50:16;;;;;;;34.88;21.17;;;;;;;;;;10508411;28;20503;-88
2022/10/20 20:55:18;;;;;;;34.03;22.92;;;;;;;;;;10503711;28;20431;-87
2022/10/20 21:00:20;;;;;;;34.25;21.98;;;;;;;;;;10495522;28;20413;-89
2022/10/20 21:05:23;;;;;;;32.47;22.50;;;;;;;;;;10498913;28;20498;-90
2022/10/20 21:10:25;;;;;;;37.20;22.88;;;;;;;;;;10511156;28;21229;-88
2022/10/20 21:15:27;;;;;;;33.08;22.00;;;;;;;;;;10508277;28;20487;-91
2022/10/20 21:20:30;;;;;;;33.95;21.77;;;;;;;;;;10507582;28;20405;-88
2022/10/20 21:25:32;;;;;;;34.55;22.98;;;;;;;;;;10509559;28;20511;-88
2022/10/20 21:30:34;;;;;;;34.25;22.85;;;;;;;;;;10514691;28;20412;-88
2022/10/20 21:35:37;;;;;;;31.15;22.33;;;;;;;;;;10509256;28;20430;-87
2022/10/20 21:40:40;;;;;;;35.53;22.60;;;;;;;;;;10509834;28;20406;-88
2022/10/20 21:45:41;;;;;;;34.53;22.52;;;;;;;;;;10514710;28;20772;-89
2022/10/20 21:50:45;;;;;;;32.35;23.55;;;;;;;;;;10524222;28;20427;-89
2022/10/20 21:55:46;;;;;;;36.27;23.77;;;;;;;;;;10525693;28;20884;-90
2022/10/20 22:00:52;;;;;;;36.87;23.83;;;;;;;;;;10521979;28;20486;-90
2022/10/20 22:05:55;;;;;;;35.17;23.60;;;;;;;;;;10526560;28;20406;-91
2022/10/20 22:10:57;;;;;;;37.15;23.13;;;;;;;;;;10518132;28;20971;-90
2022/10/20 22:16:00;;;;;;;33.97;23.00;;;;;;;;;;10523273;28;20462;-91
2022/10/20 22:21:04;;;;;;;36.95;23.10;;;;;;;;;;10515869;28;20493;-89
2022/10/20 22:26:06;;;;;;;35.17;22.57;;;;;;;;;;10518984;28;20483;-90
2022/10/20 22:31:08;;;;;;;38.88;23.88;;;;;;;;;;10512693;28;20410;-91
2022/10/20 22:36:12;;;;;;;34.78;23.73;;;;;;;;;;10482669;28;20434;-90
2022/10/20 22:41:14;;;;;;;33.70;22.90;;;;;;;;;;10462707;28;20482;-90
2022/10/20 22:46:15;;;;;;;35.45;23.05;;;;;;;;;;10459090;28;20419;-91
2022/10/20 22:51:19;;;;;;;32.80;23.23;;;;;;;;;;10459697;28;20419;-91
2022/10/20 22:56:22;;;;;;;34.45;22.98;;;;;;;;;;10466275;28;20522;-90
2022/10/20 23:01:24;;;;;;;32.10;22.48;;;;;;;;;;10462887;28;20406;-89
2022/10/20 23:06:27;;;;;;;31.80;22.23;;;;;;;;;;10465496;28;20528;-88
2022/10/20 23:11:30;;;;;;;33.17;22.60;;;;;;;;;;10479846;28;20447;-90
2022/10/20 23:16:32;;;;;;;33.60;22.30;;;;;;;;;;10469308;28;20495;-91
2022/10/20 23:21:35;;;;;;;34.37;22.03;;;;;;;;;;10467230;28;20516;-90
2022/10/20 23:26:37;;;;;;;32.05;22.33;;;;;;;;;;10467662;28;20754;-90
2022/10/20 23:31:39;;;;;;;33.95;21.60;;;;;;;;;;10468284;28;20426;-89
2022/10/20 23:36:42;;;;;;;31.67;21.90;;;;;;;;;;10512620;28;20447;-88
2022/10/20 23:41:44;;;;;;;31.73;21.30;;;;;;;;;;10508267;28;21222;-90
2022/10/20 23:46:46;;;;;;;32.47;21.42;;;;;;;;;;10507054;28;20500;-91
2022/10/20 23:51:50;;;;;;;28.05;20.27;;;;;;;;;;10508213;28;20434;-89
2022/10/20 23:56:51;;;;;;;31.85;21.40;;;;;;;;;;10504553;28;20503;-91
